sensor_id;sensor_type;location;lat;lon;timestamp;temperature;humidity
22779;DHT22;11556;51.194;3.800;2023-01-16T00:01:14;5.40;99.90
22779;DHT22;11556;51.194;3.800;2023-01-16T00:03:39;5.40;99.90
22779;DHT22;11556;51.194;3.800;2023-01-16T00:06:05;5.40;99.90
22779;DHT22;11556;51.194;3.800;2023-01-16T00:08:31;5.30;99.90
22779;DHT22;11556;51.194;3.800;2023-01-16T00:10:57;5.30;99.90
22779;DHT22;11556;51.194;3.800;2023-01-16T00:13:22;5.30;99.90
22779;DHT22;11556;51.194;3.800;2023-01-16T00:15:50;5.30;99.90
22779;DHT22;11556;51.194;3.800;2023-01-16T00:18:16;5.30;99.90
22779;DHT22;11556;51.194;3.800;2023-01-16T00:20:42;5.30;99.90
22779;DHT22;11556;51.194;3.800;2023-01-16T00:23:08;5.30;99.90
22779;DHT22;11556;51.194;3.800;2023-01-16T00:25:38;5.40;99.90
22779;DHT22;11556;51.194;3.800;2023-01-16T00:28:04;5.40;99.90
22779;DHT22;11556;51.194;3.800;2023-01-16T00:30:30;5.40;99.90
22779;DHT22;11556;51.194;3.800;2023-01-16T00:32:55;5.40;99.90
22779;DHT22;11556;51.194;3.800;2023-01-16T00:35:22;5.40;99.90
22779;DHT22;11556;51.194;3.800;2023-01-16T00:37:48;5.40;99.90
22779;DHT22;11556;51.194;3.800;2023-01-16T00:40:13;5.50;99.90
22779;DHT22;11556;51.194;3.800;2023-01-16T00:42:39;5.40;99.90
22779;DHT22;11556;51.194;3.800;2023-01-16T00:45:06;5.30;99.90
22779;DHT22;11556;51.194;3.800;2023-01-16T00:47:32;5.30;99.90
22779;DHT22;11556;51.194;3.800;2023-01-16T00:49:58;5.30;99.90
22779;DHT22;11556;51.194;3.800;2023-01-16T00:52:23;5.40;99.90
22779;DHT22;11556;51.194;3.800;2023-01-16T00:54:49;5.30;99.90
22779;DHT22;11556;51.194;3.800;2023-01-16T00:57:15;5.20;99.90
22779;DHT22;11556;51.194;3.800;2023-01-16T00:59:40;5.20;99.90
22779;DHT22;11556;51.194;3.800;2023-01-16T01:02:06;5.20;99.90
22779;DHT22;11556;51.194;3.800;2023-01-16T01:04:31;5.20;99.90
22779;DHT22;11556;51.194;3.800;2023-01-16T01:06:57;5.20;99.90
22779;DHT22;11556;51.194;3.800;2023-01-16T01:09:22;5.20;99.90
22779;DHT22;11556;51.194;3.800;2023-01-16T01:11:48;5.20;99.90
22779;DHT22;11556;51.194;3.800;2023-01-16T01:14:13;5.20;99.90
22779;DHT22;11556;51.194;3.800;2023-01-16T01:16:39;5.30;99.90
22779;DHT22;11556;51.194;3.800;2023-01-16T01:19:05;5.30;99.90
22779;DHT22;11556;51.194;3.800;2023-01-16T01:21:31;5.30;99.90
22779;DHT22;11556;51.194;3.800;2023-01-16T01:23:56;5.30;99.90
22779;DHT22;11556;51.194;3.800;2023-01-16T01:26:22;5.40;99.90
22779;DHT22;11556;51.194;3.800;2023-01-16T01:28:48;5.30;99.90
22779;DHT22;11556;51.194;3.800;2023-01-16T01:31:14;5.30;99.90
22779;DHT22;11556;51.194;3.800;2023-01-16T01:33:39;5.30;99.90
22779;DHT22;11556;51.194;3.800;2023-01-16T01:36:06;5.30;99.90
22779;DHT22;11556;51.194;3.800;2023-01-16T01:38:33;5.30;99.90
22779;DHT22;11556;51.194;3.800;2023-01-16T01:40:59;5.50;99.90
22779;DHT22;11556;51.194;3.800;2023-01-16T01:43:45;5.50;99.90
22779;DHT22;11556;51.194;3.800;2023-01-16T01:49:28;5.40;99.90
22779;DHT22;11556;51.194;3.800;2023-01-16T01:51:57;5.50;99.90
22779;DHT22;11556;51.194;3.800;2023-01-16T01:54:30;5.50;99.90
22779;DHT22;11556;51.194;3.800;2023-01-16T01:57:13;5.30;99.90
22779;DHT22;11556;51.194;3.800;2023-01-16T01:59:46;5.20;99.90
22779;DHT22;11556;51.194;3.800;2023-01-16T02:02:17;5.20;99.90
22779;DHT22;11556;51.194;3.800;2023-01-16T02:04:46;5.30;99.90
22779;DHT22;11556;51.194;3.800;2023-01-16T02:07:15;5.40;99.90
22779;DHT22;11556;51.194;3.800;2023-01-16T02:09:41;5.30;99.90
22779;DHT22;11556;51.194;3.800;2023-01-16T02:12:12;5.30;99.90
22779;DHT22;11556;51.194;3.800;2023-01-16T02:14:40;5.20;99.90
22779;DHT22;11556;51.194;3.800;2023-01-16T02:17:11;5.20;99.90
22779;DHT22;11556;51.194;3.800;2023-01-16T02:41:50;5.20;99.90
22779;DHT22;11556;51.194;3.800;2023-01-16T02:47:26;5.10;99.90
22779;DHT22;11556;51.194;3.800;2023-01-16T02:50:02;5.10;99.90
22779;DHT22;11556;51.194;3.800;2023-01-16T02:52:35;5.10;99.90
22779;DHT22;11556;51.194;3.800;2023-01-16T02:55:15;5.10;99.90
22779;DHT22;11556;51.194;3.800;2023-01-16T02:57:47;5.10;99.90
22779;DHT22;11556;51.194;3.800;2023-01-16T03:00:15;5.20;99.90
22779;DHT22;11556;51.194;3.800;2023-01-16T03:02:43;5.20;99.90
22779;DHT22;11556;51.194;3.800;2023-01-16T03:05:09;5.20;99.90
22779;DHT22;11556;51.194;3.800;2023-01-16T03:12:45;5.30;99.90
22779;DHT22;11556;51.194;3.800;2023-01-16T03:15:26;5.30;99.90
22779;DHT22;11556;51.194;3.800;2023-01-16T03:23:22;5.20;99.90
22779;DHT22;11556;51.194;3.800;2023-01-16T03:31:13;5.20;99.90
22779;DHT22;11556;51.194;3.800;2023-01-16T03:36:20;5.20;99.90
22779;DHT22;11556;51.194;3.800;2023-01-16T03:38:48;5.30;99.90
22779;DHT22;11556;51.194;3.800;2023-01-16T03:41:18;5.30;99.90
22779;DHT22;11556;51.194;3.800;2023-01-16T03:43:48;5.30;99.90
22779;DHT22;11556;51.194;3.800;2023-01-16T03:46:37;5.40;99.90
22779;DHT22;11556;51.194;3.800;2023-01-16T03:49:11;5.40;99.90
22779;DHT22;11556;51.194;3.800;2023-01-16T03:51:43;5.40;99.90
22779;DHT22;11556;51.194;3.800;2023-01-16T03:57:13;5.50;99.90
22779;DHT22;11556;51.194;3.800;2023-01-16T03:59:43;5.40;99.90
22779;DHT22;11556;51.194;3.800;2023-01-16T04:02:17;5.40;99.90
22779;DHT22;11556;51.194;3.800;2023-01-16T04:05:02;5.40;99.90
22779;DHT22;11556;51.194;3.800;2023-01-16T04:07:53;5.40;99.90
22779;DHT22;11556;51.194;3.800;2023-01-16T04:10:25;5.50;99.90
22779;DHT22;11556;51.194;3.800;2023-01-16T04:12:57;5.50;99.90
22779;DHT22;11556;51.194;3.800;2023-01-16T04:15:24;5.50;99.90
22779;DHT22;11556;51.194;3.800;2023-01-16T04:17:51;5.50;99.90
22779;DHT22;11556;51.194;3.800;2023-01-16T04:20:17;5.50;99.90
22779;DHT22;11556;51.194;3.800;2023-01-16T04:22:48;5.50;99.90
22779;DHT22;11556;51.194;3.800;2023-01-16T04:25:14;5.50;99.90
22779;DHT22;11556;51.194;3.800;2023-01-16T04:27:41;5.50;99.90
22779;DHT22;11556;51.194;3.800;2023-01-16T04:30:07;5.40;99.90
22779;DHT22;11556;51.194;3.800;2023-01-16T04:32:33;5.40;99.90
22779;DHT22;11556;51.194;3.800;2023-01-16T04:34:58;5.40;99.90
22779;DHT22;11556;51.194;3.800;2023-01-16T04:37:24;5.30;99.90
22779;DHT22;11556;51.194;3.800;2023-01-16T04:39:50;5.40;99.90
22779;DHT22;11556;51.194;3.800;2023-01-16T04:42:15;5.40;99.90
22779;DHT22;11556;51.194;3.800;2023-01-16T04:44:41;5.30;99.90
22779;DHT22;11556;51.194;3.800;2023-01-16T04:47:07;5.30;99.90
22779;DHT22;11556;51.194;3.800;2023-01-16T04:49:33;5.30;99.90
22779;DHT22;11556;51.194;3.800;2023-01-16T04:51:58;5.30;99.90
22779;DHT22;11556;51.194;3.800;2023-01-16T04:54:24;5.30;99.90
22779;DHT22;11556;51.194;3.800;2023-01-16T04:56:50;5.30;99.90
22779;DHT22;11556;51.194;3.800;2023-01-16T04:59:15;5.30;99.90
22779;DHT22;11556;51.194;3.800;2023-01-16T05:01:41;5.30;99.90
22779;DHT22;11556;51.194;3.800;2023-01-16T05:04:09;5.30;99.90
22779;DHT22;11556;51.194;3.800;2023-01-16T05:06:35;5.30;99.90
22779;DHT22;11556;51.194;3.800;2023-01-16T05:09:02;5.20;99.90
22779;DHT22;11556;51.194;3.800;2023-01-16T05:11:28;5.30;99.90
22779;DHT22;11556;51.194;3.800;2023-01-16T05:13:54;5.40;99.90
22779;DHT22;11556;51.194;3.800;2023-01-16T05:16:19;5.30;99.90
22779;DHT22;11556;51.194;3.800;2023-01-16T05:18:45;5.30;99.90
22779;DHT22;11556;51.194;3.800;2023-01-16T05:21:11;5.20;99.90
22779;DHT22;11556;51.194;3.800;2023-01-16T05:23:36;5.30;99.90
22779;DHT22;11556;51.194;3.800;2023-01-16T05:26:05;5.30;99.90
22779;DHT22;11556;51.194;3.800;2023-01-16T05:28:32;5.30;99.90
22779;DHT22;11556;51.194;3.800;2023-01-16T05:30:57;5.30;99.90
22779;DHT22;11556;51.194;3.800;2023-01-16T05:33:23;5.30;99.90
22779;DHT22;11556;51.194;3.800;2023-01-16T05:35:49;5.40;99.90
22779;DHT22;11556;51.194;3.800;2023-01-16T05:38:16;5.30;99.90
22779;DHT22;11556;51.194;3.800;2023-01-16T05:40:43;5.30;99.90
22779;DHT22;11556;51.194;3.800;2023-01-16T05:43:09;5.40;99.90
22779;DHT22;11556;51.194;3.800;2023-01-16T05:45:35;5.30;99.90
22779;DHT22;11556;51.194;3.800;2023-01-16T05:48:01;5.30;99.90
22779;DHT22;11556;51.194;3.800;2023-01-16T05:50:27;5.40;99.90
22779;DHT22;11556;51.194;3.800;2023-01-16T05:52:53;5.50;99.90
22779;DHT22;11556;51.194;3.800;2023-01-16T05:55:18;5.30;99.90
22779;DHT22;11556;51.194;3.800;2023-01-16T05:57:44;5.30;99.90
22779;DHT22;11556;51.194;3.800;2023-01-16T06:00:10;5.30;99.90
22779;DHT22;11556;51.194;3.800;2023-01-16T06:02:36;5.40;99.90
22779;DHT22;11556;51.194;3.800;2023-01-16T06:05:02;5.40;99.90
22779;DHT22;11556;51.194;3.800;2023-01-16T06:07:28;5.30;99.90
22779;DHT22;11556;51.194;3.800;2023-01-16T06:09:54;5.30;99.90
22779;DHT22;11556;51.194;3.800;2023-01-16T06:12:20;5.30;99.90
22779;DHT22;11556;51.194;3.800;2023-01-16T06:14:46;5.30;99.90
22779;DHT22;11556;51.194;3.800;2023-01-16T06:17:12;5.30;99.90
22779;DHT22;11556;51.194;3.800;2023-01-16T06:19:40;5.30;99.90
22779;DHT22;11556;51.194;3.800;2023-01-16T06:22:06;5.30;99.90
22779;DHT22;11556;51.194;3.800;2023-01-16T06:24:32;5.20;99.90
22779;DHT22;11556;51.194;3.800;2023-01-16T06:26:57;5.20;99.90
22779;DHT22;11556;51.194;3.800;2023-01-16T06:29:23;5.30;99.90
22779;DHT22;11556;51.194;3.800;2023-01-16T06:31:49;5.30;99.90
22779;DHT22;11556;51.194;3.800;2023-01-16T06:34:14;5.30;99.90
22779;DHT22;11556;51.194;3.800;2023-01-16T06:36:40;5.20;99.90
22779;DHT22;11556;51.194;3.800;2023-01-16T06:39:07;5.30;99.90
22779;DHT22;11556;51.194;3.800;2023-01-16T06:41:33;5.20;99.90
22779;DHT22;11556;51.194;3.800;2023-01-16T06:43:59;5.20;99.90
22779;DHT22;11556;51.194;3.800;2023-01-16T06:46:25;5.30;99.90
22779;DHT22;11556;51.194;3.800;2023-01-16T06:48:51;5.30;99.90
22779;DHT22;11556;51.194;3.800;2023-01-16T06:51:16;5.20;99.90
22779;DHT22;11556;51.194;3.800;2023-01-16T06:53:42;5.20;99.90
22779;DHT22;11556;51.194;3.800;2023-01-16T06:56:07;5.20;99.90
22779;DHT22;11556;51.194;3.800;2023-01-16T06:58:33;5.30;99.90
22779;DHT22;11556;51.194;3.800;2023-01-16T07:00:59;5.30;99.90
22779;DHT22;11556;51.194;3.800;2023-01-16T07:03:24;5.30;99.90
22779;DHT22;11556;51.194;3.800;2023-01-16T07:05:50;5.30;99.90
22779;DHT22;11556;51.194;3.800;2023-01-16T07:08:16;5.20;99.90
22779;DHT22;11556;51.194;3.800;2023-01-16T07:10:42;5.20;99.90
22779;DHT22;11556;51.194;3.800;2023-01-16T07:13:08;5.20;99.90
22779;DHT22;11556;51.194;3.800;2023-01-16T07:15:36;5.20;99.90
22779;DHT22;11556;51.194;3.800;2023-01-16T07:18:20;5.20;99.90
22779;DHT22;11556;51.194;3.800;2023-01-16T07:21:08;5.20;99.90
22779;DHT22;11556;51.194;3.800;2023-01-16T07:24:05;5.10;99.90
22779;DHT22;11556;51.194;3.800;2023-01-16T07:26:33;5.10;99.90
22779;DHT22;11556;51.194;3.800;2023-01-16T07:29:00;5.10;99.90
22779;DHT22;11556;51.194;3.800;2023-01-16T07:31:28;5.10;99.90
22779;DHT22;11556;51.194;3.800;2023-01-16T07:33:54;5.10;99.90
22779;DHT22;11556;51.194;3.800;2023-01-16T07:36:20;5.10;99.90
22779;DHT22;11556;51.194;3.800;2023-01-16T07:38:45;5.10;99.90
22779;DHT22;11556;51.194;3.800;2023-01-16T07:41:11;5.10;99.90
22779;DHT22;11556;51.194;3.800;2023-01-16T07:43:36;5.10;99.90
22779;DHT22;11556;51.194;3.800;2023-01-16T07:46:02;5.10;99.90
22779;DHT22;11556;51.194;3.800;2023-01-16T07:48:28;5.20;99.90
22779;DHT22;11556;51.194;3.800;2023-01-16T07:50:55;5.20;99.90
22779;DHT22;11556;51.194;3.800;2023-01-16T07:53:22;5.20;99.90
22779;DHT22;11556;51.194;3.800;2023-01-16T07:55:50;5.30;99.90
22779;DHT22;11556;51.194;3.800;2023-01-16T07:58:16;5.30;99.90
22779;DHT22;11556;51.194;3.800;2023-01-16T08:00:43;5.30;99.90
22779;DHT22;11556;51.194;3.800;2023-01-16T08:03:09;5.30;99.90
22779;DHT22;11556;51.194;3.800;2023-01-16T08:05:35;5.40;99.90
22779;DHT22;11556;51.194;3.800;2023-01-16T08:08:00;5.40;99.90
22779;DHT22;11556;51.194;3.800;2023-01-16T08:10:26;5.40;99.90
22779;DHT22;11556;51.194;3.800;2023-01-16T08:12:51;5.40;99.90
22779;DHT22;11556;51.194;3.800;2023-01-16T08:15:17;5.40;99.90
22779;DHT22;11556;51.194;3.800;2023-01-16T08:17:42;5.40;99.90
22779;DHT22;11556;51.194;3.800;2023-01-16T08:20:09;5.50;99.90
22779;DHT22;11556;51.194;3.800;2023-01-16T08:22:35;5.60;99.90
22779;DHT22;11556;51.194;3.800;2023-01-16T08:25:06;5.50;99.90
22779;DHT22;11556;51.194;3.800;2023-01-16T08:27:32;5.60;99.90
22779;DHT22;11556;51.194;3.800;2023-01-16T08:29:58;5.70;99.90
22779;DHT22;11556;51.194;3.800;2023-01-16T08:32:23;5.70;99.90
22779;DHT22;11556;51.194;3.800;2023-01-16T08:34:49;5.70;99.90
22779;DHT22;11556;51.194;3.800;2023-01-16T08:37:14;5.80;99.90
22779;DHT22;11556;51.194;3.800;2023-01-16T08:39:40;5.80;99.90
22779;DHT22;11556;51.194;3.800;2023-01-16T08:42:06;5.70;99.90
22779;DHT22;11556;51.194;3.800;2023-01-16T08:44:50;5.80;99.90
22779;DHT22;11556;51.194;3.800;2023-01-16T08:47:34;5.90;99.90
22779;DHT22;11556;51.194;3.800;2023-01-16T08:50:19;6.00;99.90
22779;DHT22;11556;51.194;3.800;2023-01-16T08:53:04;6.20;99.90
22779;DHT22;11556;51.194;3.800;2023-01-16T08:55:31;6.40;99.90
22779;DHT22;11556;51.194;3.800;2023-01-16T08:57:56;6.30;99.90
22779;DHT22;11556;51.194;3.800;2023-01-16T09:00:26;6.30;99.90
22779;DHT22;11556;51.194;3.800;2023-01-16T09:02:52;6.30;99.90
22779;DHT22;11556;51.194;3.800;2023-01-16T09:05:19;6.30;99.90
22779;DHT22;11556;51.194;3.800;2023-01-16T09:07:45;6.40;99.90
22779;DHT22;11556;51.194;3.800;2023-01-16T09:10:11;6.50;99.90
22779;DHT22;11556;51.194;3.800;2023-01-16T09:12:38;6.50;99.90
22779;DHT22;11556;51.194;3.800;2023-01-16T09:15:23;6.40;99.90
22779;DHT22;11556;51.194;3.800;2023-01-16T09:17:48;6.30;99.90
22779;DHT22;11556;51.194;3.800;2023-01-16T09:20:14;6.30;99.90
22779;DHT22;11556;51.194;3.800;2023-01-16T09:22:40;6.50;99.90
22779;DHT22;11556;51.194;3.800;2023-01-16T09:25:06;6.50;99.90
22779;DHT22;11556;51.194;3.800;2023-01-16T09:27:32;6.50;99.90
22779;DHT22;11556;51.194;3.800;2023-01-16T09:29:57;6.60;99.90
22779;DHT22;11556;51.194;3.800;2023-01-16T09:32:24;6.60;99.90
22779;DHT22;11556;51.194;3.800;2023-01-16T09:34:50;6.70;99.90
22779;DHT22;11556;51.194;3.800;2023-01-16T09:37:15;6.70;99.90
22779;DHT22;11556;51.194;3.800;2023-01-16T09:39:41;6.70;99.90
22779;DHT22;11556;51.194;3.800;2023-01-16T09:42:33;6.60;99.90
22779;DHT22;11556;51.194;3.800;2023-01-16T09:45:25;6.60;99.90
22779;DHT22;11556;51.194;3.800;2023-01-16T09:47:55;6.50;99.90
22779;DHT22;11556;51.194;3.800;2023-01-16T09:50:42;6.40;99.90
22779;DHT22;11556;51.194;3.800;2023-01-16T09:53:32;6.50;99.90
22779;DHT22;11556;51.194;3.800;2023-01-16T09:56:18;6.40;99.90
22779;DHT22;11556;51.194;3.800;2023-01-16T10:01:45;6.50;99.90
22779;DHT22;11556;51.194;3.800;2023-01-16T10:04:21;6.60;99.90
22779;DHT22;11556;51.194;3.800;2023-01-16T10:09:39;6.80;99.90
22779;DHT22;11556;51.194;3.800;2023-01-16T10:12:11;6.80;99.90
22779;DHT22;11556;51.194;3.800;2023-01-16T10:17:25;6.80;99.90
22779;DHT22;11556;51.194;3.800;2023-01-16T10:31:20;6.70;99.90
22779;DHT22;11556;51.194;3.800;2023-01-16T10:33:58;6.70;99.90
22779;DHT22;11556;51.194;3.800;2023-01-16T10:36:34;6.60;99.90
22779;DHT22;11556;51.194;3.800;2023-01-16T10:39:01;6.80;99.90
22779;DHT22;11556;51.194;3.800;2023-01-16T10:41:28;6.80;99.90
22779;DHT22;11556;51.194;3.800;2023-01-16T10:44:32;6.90;99.90
22779;DHT22;11556;51.194;3.800;2023-01-16T10:47:21;7.00;99.90
22779;DHT22;11556;51.194;3.800;2023-01-16T10:50:06;6.90;99.90
22779;DHT22;11556;51.194;3.800;2023-01-16T10:52:33;7.00;99.90
22779;DHT22;11556;51.194;3.800;2023-01-16T10:54:59;7.10;99.90
22779;DHT22;11556;51.194;3.800;2023-01-16T10:57:26;7.00;99.90
22779;DHT22;11556;51.194;3.800;2023-01-16T11:00:02;6.90;99.90
22779;DHT22;11556;51.194;3.800;2023-01-16T11:02:42;6.90;99.90
22779;DHT22;11556;51.194;3.800;2023-01-16T11:05:30;7.10;99.90
22779;DHT22;11556;51.194;3.800;2023-01-16T11:08:06;7.20;99.90
22779;DHT22;11556;51.194;3.800;2023-01-16T11:10:32;7.10;99.90
22779;DHT22;11556;51.194;3.800;2023-01-16T11:12:59;7.10;99.90
22779;DHT22;11556;51.194;3.800;2023-01-16T11:16:09;7.40;99.90
22779;DHT22;11556;51.194;3.800;2023-01-16T11:19:23;7.60;99.90
22779;DHT22;11556;51.194;3.800;2023-01-16T11:22:00;7.90;99.90
22779;DHT22;11556;51.194;3.800;2023-01-16T11:24:39;7.90;99.90
22779;DHT22;11556;51.194;3.800;2023-01-16T11:27:08;7.10;99.90
22779;DHT22;11556;51.194;3.800;2023-01-16T11:29:39;6.90;99.90
22779;DHT22;11556;51.194;3.800;2023-01-16T11:32:11;6.90;99.90
22779;DHT22;11556;51.194;3.800;2023-01-16T11:34:43;7.00;99.90
22779;DHT22;11556;51.194;3.800;2023-01-16T11:37:12;7.30;99.90
22779;DHT22;11556;51.194;3.800;2023-01-16T11:39:39;7.30;99.90
22779;DHT22;11556;51.194;3.800;2023-01-16T11:42:11;7.40;99.90
22779;DHT22;11556;51.194;3.800;2023-01-16T11:45:16;7.70;99.90
22779;DHT22;11556;51.194;3.800;2023-01-16T11:48:05;7.50;99.90
22779;DHT22;11556;51.194;3.800;2023-01-16T11:50:53;7.80;99.90
22779;DHT22;11556;51.194;3.800;2023-01-16T11:53:20;8.00;99.90
22779;DHT22;11556;51.194;3.800;2023-01-16T11:55:57;7.80;99.90
22779;DHT22;11556;51.194;3.800;2023-01-16T12:13:21;8.20;99.90
22779;DHT22;11556;51.194;3.800;2023-01-16T12:16:29;8.40;99.90
22779;DHT22;11556;51.194;3.800;2023-01-16T12:21:59;8.60;99.90
22779;DHT22;11556;51.194;3.800;2023-01-16T12:27:44;8.40;99.90
22779;DHT22;11556;51.194;3.800;2023-01-16T12:39:52;8.30;99.90
22779;DHT22;11556;51.194;3.800;2023-01-16T12:42:34;8.30;99.90
22779;DHT22;11556;51.194;3.800;2023-01-16T12:48:22;7.90;99.90
22779;DHT22;11556;51.194;3.800;2023-01-16T12:54:11;8.10;99.90
22779;DHT22;11556;51.194;3.800;2023-01-16T12:59:38;8.10;99.90
22779;DHT22;11556;51.194;3.800;2023-01-16T13:05:25;8.10;99.90
22779;DHT22;11556;51.194;3.800;2023-01-16T13:08:23;8.30;99.90
22779;DHT22;11556;51.194;3.800;2023-01-16T13:10:53;8.30;99.90
22779;DHT22;11556;51.194;3.800;2023-01-16T13:13:59;8.40;99.90
22779;DHT22;11556;51.194;3.800;2023-01-16T13:17:03;8.30;99.90
22779;DHT22;11556;51.194;3.800;2023-01-16T13:19:32;8.20;99.90
22779;DHT22;11556;51.194;3.800;2023-01-16T13:22:19;8.20;99.90
22779;DHT22;11556;51.194;3.800;2023-01-16T13:24:59;8.10;99.90
22779;DHT22;11556;51.194;3.800;2023-01-16T13:27:43;8.10;99.90
22779;DHT22;11556;51.194;3.800;2023-01-16T13:30:17;8.20;99.90
22779;DHT22;11556;51.194;3.800;2023-01-16T13:32:59;8.10;99.90
22779;DHT22;11556;51.194;3.800;2023-01-16T13:35:35;8.20;99.90
22779;DHT22;11556;51.194;3.800;2023-01-16T13:41:00;8.50;99.90
22779;DHT22;11556;51.194;3.800;2023-01-16T13:43:37;8.50;99.90
22779;DHT22;11556;51.194;3.800;2023-01-16T13:46:23;8.30;99.90
22779;DHT22;11556;51.194;3.800;2023-01-16T13:48:53;8.30;99.90
22779;DHT22;11556;51.194;3.800;2023-01-16T13:51:21;8.40;99.90
22779;DHT22;11556;51.194;3.800;2023-01-16T13:54:00;8.50;99.90
22779;DHT22;11556;51.194;3.800;2023-01-16T13:56:28;8.40;99.90
22779;DHT22;11556;51.194;3.800;2023-01-16T14:01:54;8.50;99.90
22779;DHT22;11556;51.194;3.800;2023-01-16T14:07:02;8.40;99.90
22779;DHT22;11556;51.194;3.800;2023-01-16T14:10:07;8.50;99.90
22779;DHT22;11556;51.194;3.800;2023-01-16T14:12:44;8.60;99.90
22779;DHT22;11556;51.194;3.800;2023-01-16T14:15:25;8.60;99.90
22779;DHT22;11556;51.194;3.800;2023-01-16T14:18:16;8.60;99.90
22779;DHT22;11556;51.194;3.800;2023-01-16T14:23:36;8.50;99.90
22779;DHT22;11556;51.194;3.800;2023-01-16T14:29:32;8.40;99.90
22779;DHT22;11556;51.194;3.800;2023-01-16T14:32:19;8.50;99.90
22779;DHT22;11556;51.194;3.800;2023-01-16T14:37:27;8.50;99.90
22779;DHT22;11556;51.194;3.800;2023-01-16T14:39:56;8.30;99.90
22779;DHT22;11556;51.194;3.800;2023-01-16T14:42:37;8.10;99.90
22779;DHT22;11556;51.194;3.800;2023-01-16T14:48:35;7.70;99.90
22779;DHT22;11556;51.194;3.800;2023-01-16T14:51:29;7.50;99.90
22779;DHT22;11556;51.194;3.800;2023-01-16T14:54:31;7.40;99.90
22779;DHT22;11556;51.194;3.800;2023-01-16T14:57:16;7.30;99.90
22779;DHT22;11556;51.194;3.800;2023-01-16T15:00:36;7.30;99.90
22779;DHT22;11556;51.194;3.800;2023-01-16T15:03:21;7.00;99.90
22779;DHT22;11556;51.194;3.800;2023-01-16T15:05:55;6.90;99.90
22779;DHT22;11556;51.194;3.800;2023-01-16T15:08:31;6.70;99.90
22779;DHT22;11556;51.194;3.800;2023-01-16T15:11:01;6.60;99.90
22779;DHT22;11556;51.194;3.800;2023-01-16T15:13:53;6.50;99.90
22779;DHT22;11556;51.194;3.800;2023-01-16T15:20:17;6.40;99.90
22779;DHT22;11556;51.194;3.800;2023-01-16T15:23:05;6.30;99.90
22779;DHT22;11556;51.194;3.800;2023-01-16T15:30:37;6.10;99.90
22779;DHT22;11556;51.194;3.800;2023-01-16T15:33:03;6.00;99.90
22779;DHT22;11556;51.194;3.800;2023-01-16T15:35:57;6.00;99.90
22779;DHT22;11556;51.194;3.800;2023-01-16T15:38:25;6.10;99.90
22779;DHT22;11556;51.194;3.800;2023-01-16T15:40:52;6.10;99.90
22779;DHT22;11556;51.194;3.800;2023-01-16T15:43:18;6.20;99.90
22779;DHT22;11556;51.194;3.800;2023-01-16T15:49:15;6.10;99.90
22779;DHT22;11556;51.194;3.800;2023-01-16T15:51:52;6.10;99.90
22779;DHT22;11556;51.194;3.800;2023-01-16T15:54:18;6.20;99.90
22779;DHT22;11556;51.194;3.800;2023-01-16T15:56:45;6.20;99.90
22779;DHT22;11556;51.194;3.800;2023-01-16T15:59:32;6.30;99.90
22779;DHT22;11556;51.194;3.800;2023-01-16T16:04:41;6.40;99.90
22779;DHT22;11556;51.194;3.800;2023-01-16T16:07:07;6.50;99.90
22779;DHT22;11556;51.194;3.800;2023-01-16T16:09:32;6.50;99.90
22779;DHT22;11556;51.194;3.800;2023-01-16T16:11:59;6.50;99.90
22779;DHT22;11556;51.194;3.800;2023-01-16T16:14:31;6.50;99.90
22779;DHT22;11556;51.194;3.800;2023-01-16T16:20:37;6.50;99.90
22779;DHT22;11556;51.194;3.800;2023-01-16T16:23:34;6.50;99.90
22779;DHT22;11556;51.194;3.800;2023-01-16T16:26:04;6.40;99.90
22779;DHT22;11556;51.194;3.800;2023-01-16T16:33:43;6.40;99.90
22779;DHT22;11556;51.194;3.800;2023-01-16T16:36:17;6.40;99.90
22779;DHT22;11556;51.194;3.800;2023-01-16T16:38:50;6.40;99.90
22779;DHT22;11556;51.194;3.800;2023-01-16T16:44:22;6.30;99.90
22779;DHT22;11556;51.194;3.800;2023-01-16T16:46:49;6.10;99.90
22779;DHT22;11556;51.194;3.800;2023-01-16T16:51:40;6.10;99.90
22779;DHT22;11556;51.194;3.800;2023-01-16T16:54:10;6.00;99.90
22779;DHT22;11556;51.194;3.800;2023-01-16T16:56:59;6.10;99.90
22779;DHT22;11556;51.194;3.800;2023-01-16T16:59:26;5.90;99.90
22779;DHT22;11556;51.194;3.800;2023-01-16T17:01:57;5.90;99.90
22779;DHT22;11556;51.194;3.800;2023-01-16T17:04:28;5.80;99.90
22779;DHT22;11556;51.194;3.800;2023-01-16T17:06:55;5.70;99.90
22779;DHT22;11556;51.194;3.800;2023-01-16T17:09:25;5.70;99.90
22779;DHT22;11556;51.194;3.800;2023-01-16T17:11:51;5.70;99.90
22779;DHT22;11556;51.194;3.800;2023-01-16T17:14:17;5.70;99.90
22779;DHT22;11556;51.194;3.800;2023-01-16T17:16:42;5.70;99.90
22779;DHT22;11556;51.194;3.800;2023-01-16T17:19:16;5.70;99.90
22779;DHT22;11556;51.194;3.800;2023-01-16T17:21:43;5.70;99.90
22779;DHT22;11556;51.194;3.800;2023-01-16T17:24:17;5.80;99.90
22779;DHT22;11556;51.194;3.800;2023-01-16T17:26:43;5.80;99.90
22779;DHT22;11556;51.194;3.800;2023-01-16T17:29:09;5.70;99.90
22779;DHT22;11556;51.194;3.800;2023-01-16T17:31:37;5.70;99.90
22779;DHT22;11556;51.194;3.800;2023-01-16T17:34:03;5.70;99.90
22779;DHT22;11556;51.194;3.800;2023-01-16T17:36:28;5.60;99.90
22779;DHT22;11556;51.194;3.800;2023-01-16T17:38:54;5.60;99.90
22779;DHT22;11556;51.194;3.800;2023-01-16T17:41:25;5.80;99.90
22779;DHT22;11556;51.194;3.800;2023-01-16T17:43:51;5.90;99.90
22779;DHT22;11556;51.194;3.800;2023-01-16T17:46:35;5.90;99.90
22779;DHT22;11556;51.194;3.800;2023-01-16T17:49:00;6.10;99.90
22779;DHT22;11556;51.194;3.800;2023-01-16T17:51:26;6.10;99.90
22779;DHT22;11556;51.194;3.800;2023-01-16T17:53:53;6.30;99.90
22779;DHT22;11556;51.194;3.800;2023-01-16T17:56:20;6.30;99.90
22779;DHT22;11556;51.194;3.800;2023-01-16T17:58:47;6.30;99.90
22779;DHT22;11556;51.194;3.800;2023-01-16T18:01:30;6.30;99.90
22779;DHT22;11556;51.194;3.800;2023-01-16T18:03:58;6.40;99.90
22779;DHT22;11556;51.194;3.800;2023-01-16T18:06:27;6.40;99.90
22779;DHT22;11556;51.194;3.800;2023-01-16T18:08:54;6.40;99.90
22779;DHT22;11556;51.194;3.800;2023-01-16T18:11:21;6.50;99.90
22779;DHT22;11556;51.194;3.800;2023-01-16T18:14:08;6.40;99.90
22779;DHT22;11556;51.194;3.800;2023-01-16T18:16:52;6.30;99.90
22779;DHT22;11556;51.194;3.800;2023-01-16T18:19:36;6.30;99.90
22779;DHT22;11556;51.194;3.800;2023-01-16T18:22:02;6.20;99.90
22779;DHT22;11556;51.194;3.800;2023-01-16T18:24:37;6.20;99.90
22779;DHT22;11556;51.194;3.800;2023-01-16T18:27:05;6.30;99.90
22779;DHT22;11556;51.194;3.800;2023-01-16T18:29:31;6.30;99.90
22779;DHT22;11556;51.194;3.800;2023-01-16T18:31:57;6.30;99.90
22779;DHT22;11556;51.194;3.800;2023-01-16T18:34:42;6.40;99.90
22779;DHT22;11556;51.194;3.800;2023-01-16T18:37:08;6.40;99.90
22779;DHT22;11556;51.194;3.800;2023-01-16T18:39:34;6.50;99.90
22779;DHT22;11556;51.194;3.800;2023-01-16T18:42:20;6.30;99.90
22779;DHT22;11556;51.194;3.800;2023-01-16T18:45:04;6.30;99.90
22779;DHT22;11556;51.194;3.800;2023-01-16T18:47:48;6.30;99.90
22779;DHT22;11556;51.194;3.800;2023-01-16T18:50:33;6.20;99.90
22779;DHT22;11556;51.194;3.800;2023-01-16T18:53:27;6.20;99.90
22779;DHT22;11556;51.194;3.800;2023-01-16T18:56:24;6.20;99.90